Agra, India
Current Conditions -  °F | °C
As of 7:00 AM on Thursday 23 Oct 2014 (Local Time) from VIDP Reporting Station
Haze Haze  
Wind Chill: 70°   Ceiling: Unl
Heat Index: 70°   Visibility: 0.75mi
Dew Point: 64°   Wind: 5mph
Humidity: 83%   Direction: 170°S
Pressure: 29.97"   Gusts: NA
Location:  27.18°N, 78.01°E
Report Text: VIDP 230200Z 17004KT 1200 R28/P2000 R29/P2000 BR NSC 21/18 Q1015 BECMG 1500
Loading
Personal Weather Stations






























Interactive Weather Map
Tropical Storm Tracking
New forecast layout! Learn more

10-Day Weather Forecast

Advertisements
Track Severe Weather on mobile